Terminal Aerodrome Forecast
Issued by NWS

Home | Current Version | Previous Version | Text Only | Print | Product List | Glossary On
Versions: 1 2 3 4 5 6 7 8 9 10 11 12 13 14 15 16 17 18 19 20 21 22 23 24
729
FTUS41 KCAR 120534 AAA
TAFFVE
TAF AMD
KFVE 120534Z 1206/1306 31010KT 6SM -SHSN OVC020
     FM121500 28008KT P6SM BKN025
     FM122200 26004KT P6SM BKN035
     FM130300 VRB03KT P6SM BKN028=

USA.gov is the U.S. government's official web portal to all federal, state and local government web resources and services.